Time;durP1;ratioP1;P1;durP2;ratioP2;P2;SDS_P1;SDS_P2;PMS_P1;PMS_P2;Temp;Humidity;BMP_temperature;BMP_pressure;BME280_temperature;BME280_humidity;BME280_pressure;Samples;Min_cycle;Max_cycle;Signal;HPM_P1;HPM_P2
2023/01/27 00:01:03;;;;;;;17.52;1.98;;;7.10;99.90;;;;;;4975478;28;20288;-78
2023/01/27 00:03:29;;;;;;;11.57;1.77;;;7.10;99.90;;;;;;4990669;28;20206;-87
2023/01/27 00:05:54;;;;;;;8.75;1.45;;;7.20;99.90;;;;;;4973810;28;20557;-86
2023/01/27 00:08:20;;;;;;;14.55;2.03;;;7.40;99.90;;;;;;4975856;28;20178;-79
2023/01/27 00:10:46;;;;;;;7.43;1.45;;;7.40;99.90;;;;;;4978508;28;20194;-85
2023/01/27 00:13:32;;;;;;;6.57;1.02;;;7.30;99.90;;;;;;4978458;28;20182;-84
2023/01/27 00:15:58;;;;;;;6.75;1.17;;;7.30;99.90;;;;;;4978401;28;20630;-82
2023/01/27 00:18:24;;;;;;;13.43;2.20;;;7.50;99.90;;;;;;4978961;28;20272;-83
2023/01/27 00:26:18;;;;;;;8.00;1.13;;;7.60;99.90;;;;;;4979394;28;20568;-86
2023/01/27 00:28:45;;;;;;;8.77;1.55;;;7.50;99.90;;;;;;4979056;28;20170;-82
2023/01/27 00:34:07;;;;;;;12.18;1.85;;;7.40;99.90;;;;;;4979155;28;20594;-86
2023/01/27 00:36:33;;;;;;;4.88;0.98;;;7.30;99.90;;;;;;4978718;28;20625;-84
2023/01/27 00:38:59;;;;;;;14.38;1.58;;;7.00;99.90;;;;;;4978079;28;20619;-83
2023/01/27 00:41:27;;;;;;;7.95;1.33;;;7.10;99.90;;;;;;4977773;28;20182;-85
2023/01/27 00:43:53;;;;;;;9.70;1.85;;;7.10;99.90;;;;;;4977793;28;20162;-77
2023/01/27 00:46:22;;;;;;;3.65;1.23;;;7.10;99.90;;;;;;4977681;28;20678;-85
2023/01/27 00:48:48;;;;;;;13.30;1.85;;;7.20;99.90;;;;;;4977517;28;20162;-76
2023/01/27 00:51:14;;;;;;;10.10;1.23;;;7.20;99.90;;;;;;4977219;28;20204;-84
2023/01/27 00:53:40;;;;;;;9.68;1.80;;;7.10;99.90;;;;;;4977817;28;20540;-86
2023/01/27 00:56:06;;;;;;;9.60;1.88;;;7.00;99.90;;;;;;4977784;28;20170;-86
2023/01/27 00:58:32;;;;;;;4.68;1.67;;;7.10;99.90;;;;;;4977751;28;20166;-81
2023/01/27 01:01:00;;;;;;;18.15;2.35;;;7.10;99.90;;;;;;4977230;28;20186;-83
2023/01/27 01:03:30;;;;;;;8.18;1.20;;;7.20;99.90;;;;;;4977273;28;20166;-85
2023/01/27 01:05:57;;;;;;;8.05;1.20;;;7.10;99.90;;;;;;4977042;28;20193;-76
2023/01/27 01:08:23;;;;;;;13.00;1.90;;;7.10;99.90;;;;;;4977370;28;20174;-82
2023/01/27 01:10:49;;;;;;;11.63;1.38;;;7.10;99.90;;;;;;4977273;28;20712;-79
2023/01/27 01:13:14;;;;;;;23.17;2.28;;;7.00;99.90;;;;;;4977658;28;20182;-84
2023/01/27 01:15:40;;;;;;;15.50;1.77;;;7.00;99.90;;;;;;4977447;28;20221;-86
2023/01/27 01:18:07;;;;;;;4.65;1.55;;;7.10;99.90;;;;;;4977123;28;20166;-76
2023/01/27 01:20:38;;;;;;;9.82;1.75;;;7.20;99.90;;;;;;4977118;28;20548;-85
2023/01/27 01:23:05;;;;;;;16.40;1.30;;;7.30;99.90;;;;;;4976265;28;20174;-76
2023/01/27 01:25:31;;;;;;;9.27;1.60;;;7.20;99.90;;;;;;4978131;28;20242;-87
2023/01/27 01:27:56;;;;;;;11.45;2.13;;;7.00;99.90;;;;;;4977683;28;20256;-79
2023/01/27 01:30:25;;;;;;;8.20;1.70;;;7.10;99.90;;;;;;4977419;28;20194;-86
2023/01/27 01:32:51;;;;;;;14.50;1.40;;;7.00;99.90;;;;;;4977960;28;20166;-86
2023/01/27 01:35:17;;;;;;;9.18;2.28;;;7.00;99.90;;;;;;4978127;28;20165;-86
2023/01/27 01:37:43;;;;;;;9.05;2.05;;;7.00;99.90;;;;;;4977779;28;20173;-85
2023/01/27 01:40:11;;;;;;;5.90;1.15;;;7.10;99.90;;;;;;4978046;28;20198;-84
2023/01/27 01:42:52;;;;;;;9.43;2.03;;;7.10;99.90;;;;;;4978665;28;20173;-86
2023/01/27 01:45:34;;;;;;;23.52;3.00;;;7.20;99.90;;;;;;4978270;28;20170;-82
2023/01/27 01:48:04;;;;;;;3.70;1.20;;;7.20;99.90;;;;;;4977588;28;20673;-83
2023/01/27 01:50:31;;;;;;;10.48;1.35;;;7.10;99.90;;;;;;4976810;28;20221;-76
2023/01/27 01:52:58;;;;;;;8.52;1.52;;;7.10;99.90;;;;;;4976683;28;20166;-85
2023/01/27 01:55:24;;;;;;;19.58;2.17;;;7.00;99.90;;;;;;4976630;28;20249;-86
2023/01/27 01:57:50;;;;;;;21.08;1.83;;;6.90;99.90;;;;;;4975887;28;20212;-84
2023/01/27 02:00:16;;;;;;;11.00;1.67;;;7.00;99.90;;;;;;4977987;28;20192;-84
2023/01/27 02:02:43;;;;;;;16.77;1.63;;;7.10;99.90;;;;;;4978476;28;20250;-86
2023/01/27 02:05:20;;;;;;;10.07;2.78;;;7.00;99.90;;;;;;4977018;28;20166;-77
2023/01/27 02:07:58;;;;;;;12.35;2.60;;;6.90;99.90;;;;;;4977113;28;20197;-83
2023/01/27 02:10:24;;;;;;;7.45;1.95;;;7.00;99.90;;;;;;4976239;28;20182;-76
2023/01/27 02:12:49;;;;;;;10.50;1.80;;;7.00;99.90;;;;;;4978760;28;20232;-77
2023/01/27 02:15:16;;;;;;;13.52;2.05;;;7.10;99.90;;;;;;4982359;28;20236;-76
2023/01/27 02:17:42;;;;;;;6.45;1.67;;;6.90;99.90;;;;;;4981941;28;20193;-77
2023/01/27 02:20:17;;;;;;;7.38;1.20;;;6.90;99.90;;;;;;4976830;28;20190;-77
2023/01/27 02:23:01;;;;;;;4.20;1.40;;;6.90;99.90;;;;;;4975141;28;20209;-76
2023/01/27 02:25:35;;;;;;;17.98;1.80;;;6.70;99.90;;;;;;4975124;28;20173;-78
2023/01/27 02:28:03;;;;;;;10.07;1.80;;;6.70;99.90;;;;;;4974948;28;20208;-77
2023/01/27 02:30:29;;;;;;;7.70;2.45;;;6.70;99.90;;;;;;4975243;28;20193;-77
2023/01/27 02:32:54;;;;;;;11.40;2.42;;;6.60;99.90;;;;;;4975847;28;20174;-77
2023/01/27 02:35:43;;;;;;;11.90;3.05;;;6.70;99.90;;;;;;4975985;28;20870;-76
2023/01/27 02:38:11;;;;;;;13.77;1.80;;;6.60;99.90;;;;;;4975742;28;20158;-86
2023/01/27 02:40:39;;;;;;;8.88;2.13;;;6.60;99.90;;;;;;4975991;28;20190;-84
2023/01/27 02:43:04;;;;;;;5.00;1.50;;;6.60;99.90;;;;;;4975640;28;20627;-86
2023/01/27 02:45:30;;;;;;;13.75;2.15;;;6.70;99.90;;;;;;4975956;28;20176;-86
2023/01/27 02:47:56;;;;;;;3.85;1.70;;;6.70;99.90;;;;;;4975259;28;20193;-84
2023/01/27 02:50:24;;;;;;;10.90;3.42;;;6.80;99.90;;;;;;4975766;28;20193;-83
2023/01/27 02:52:50;;;;;;;4.30;1.50;;;6.80;99.90;;;;;;4975331;28;20166;-82
2023/01/27 02:55:16;;;;;;;11.68;2.08;;;6.90;99.90;;;;;;4975518;28;20157;-81
2023/01/27 02:57:41;;;;;;;10.15;2.15;;;6.80;99.90;;;;;;4975575;28;20657;-85
2023/01/27 03:00:08;;;;;;;4.55;1.63;;;7.00;99.90;;;;;;4975567;28;20213;-86
2023/01/27 03:02:34;;;;;;;11.27;1.70;;;7.10;99.90;;;;;;4975817;28;20220;-82
2023/01/27 03:04:59;;;;;;;10.35;2.13;;;7.10;99.90;;;;;;4975017;28;20194;-76
2023/01/27 03:07:25;;;;;;;17.08;2.40;;;7.10;99.90;;;;;;4975367;28;20212;-85
2023/01/27 03:09:51;;;;;;;12.65;1.65;;;7.00;99.90;;;;;;4975723;28;20192;-77
2023/01/27 03:12:19;;;;;;;16.92;2.25;;;6.80;99.90;;;;;;4975195;28;20245;-86
2023/01/27 03:20:14;;;;;;;9.40;1.60;;;6.90;99.90;;;;;;4975282;28;20251;-86
2023/01/27 03:22:40;;;;;;;6.63;2.00;;;7.00;99.90;;;;;;4975156;28;20170;-85
2023/01/27 03:25:05;;;;;;;13.90;2.20;;;6.80;99.90;;;;;;4975109;28;20216;-77
2023/01/27 03:27:31;;;;;;;6.05;1.75;;;6.90;99.90;;;;;;4974957;28;20213;-82
2023/01/27 03:29:57;;;;;;;6.68;2.25;;;7.00;99.90;;;;;;4974064;28;20252;-84
2023/01/27 03:32:25;;;;;;;8.80;2.55;;;7.10;99.90;;;;;;4975144;28;20181;-80
2023/01/27 03:34:51;;;;;;;7.07;2.08;;;6.90;99.90;;;;;;4975257;28;20194;-87
2023/01/27 03:48:16;;;;;;;5.13;1.45;;;6.30;99.90;;;;;;4978935;28;20669;-86
2023/01/27 03:50:42;;;;;;;9.15;1.88;;;6.40;99.90;;;;;;4978952;28;20679;-85
2023/01/27 03:53:11;;;;;;;7.53;1.85;;;6.50;99.90;;;;;;4977688;28;20536;-86
2023/01/27 03:55:37;;;;;;;4.10;1.50;;;6.40;99.90;;;;;;4978805;28;20185;-86
2023/01/27 03:58:18;;;;;;;7.70;1.23;;;6.30;99.90;;;;;;4978682;28;20189;-77
2023/01/27 04:00:54;;;;;;;4.38;2.20;;;6.30;99.90;;;;;;4978809;28;20689;-78
2023/01/27 04:08:56;;;;;;;9.30;2.03;;;6.50;99.90;;;;;;4979126;28;20165;-84
2023/01/27 04:14:07;;;;;;;6.80;2.95;;;6.20;99.90;;;;;;4978651;28;20185;-84
2023/01/27 04:16:35;;;;;;;11.45;3.83;;;6.30;99.90;;;;;;4978355;28;20181;-78
2023/01/27 04:19:02;;;;;;;4.40;2.83;;;6.30;99.90;;;;;;4978632;28;20220;-86
2023/01/27 04:21:28;;;;;;;12.40;3.30;;;6.30;99.90;;;;;;4978344;28;20200;-83
2023/01/27 04:23:53;;;;;;;9.65;2.90;;;6.20;99.90;;;;;;4978536;28;20170;-79
2023/01/27 04:26:19;;;;;;;11.02;3.30;;;6.20;99.90;;;;;;4977268;28;20209;-82
2023/01/27 04:28:45;;;;;;;10.65;2.88;;;6.20;99.90;;;;;;4978202;28;20205;-85
2023/01/27 04:31:11;;;;;;;11.07;3.42;;;6.00;99.90;;;;;;4977766;28;20664;-84
2023/01/27 04:33:37;;;;;;;6.28;3.28;;;5.90;99.90;;;;;;4978233;28;20198;-82
2023/01/27 04:36:02;;;;;;;8.80;3.22;;;6.00;99.90;;;;;;4978245;28;20177;-85
2023/01/27 04:38:28;;;;;;;5.97;3.58;;;6.00;99.90;;;;;;4978764;28;20173;-86
2023/01/27 04:40:54;;;;;;;4.78;2.85;;;5.90;99.90;;;;;;4978936;28;20235;-79
2023/01/27 04:43:19;;;;;;;4.15;3.05;;;6.00;99.90;;;;;;4977413;28;20678;-85
2023/01/27 04:45:45;;;;;;;6.05;3.15;;;6.10;99.90;;;;;;4978084;28;20260;-85
2023/01/27 04:48:10;;;;;;;6.53;3.60;;;6.00;99.90;;;;;;4978193;28;20194;-86
2023/01/27 04:50:36;;;;;;;6.55;3.55;;;6.00;99.90;;;;;;4978152;28;20237;-80
2023/01/27 04:53:01;;;;;;;8.52;3.42;;;5.90;99.90;;;;;;4978241;28;20177;-83
2023/01/27 04:55:27;;;;;;;4.72;3.05;;;5.80;99.90;;;;;;4977903;28;20220;-81
2023/01/27 04:57:54;;;;;;;6.28;3.08;;;5.70;99.90;;;;;;4978544;28;20170;-86
2023/01/27 05:00:20;;;;;;;9.70;2.40;;;5.70;99.90;;;;;;4978736;28;20197;-78
2023/01/27 05:02:45;;;;;;;13.15;2.58;;;5.70;99.90;;;;;;4978582;28;20170;-86
2023/01/27 05:05:11;;;;;;;5.97;2.83;;;5.70;99.90;;;;;;4978377;28;20174;-85
2023/01/27 05:07:37;;;;;;;10.23;3.30;;;5.70;99.90;;;;;;4978884;28;20732;-87
2023/01/27 05:10:04;;;;;;;7.15;2.53;;;5.80;99.90;;;;;;4978688;28;20185;-83
2023/01/27 05:12:29;;;;;;;8.98;2.80;;;6.00;99.90;;;;;;4978925;28;20173;-85
2023/01/27 05:14:55;;;;;;;12.48;3.42;;;6.00;99.90;;;;;;4983557;28;20229;-85
2023/01/27 05:17:21;;;;;;;4.38;2.92;;;5.90;99.90;;;;;;4993243;28;20173;-80
2023/01/27 05:19:46;;;;;;;10.23;3.60;;;5.90;99.90;;;;;;4991481;28;20198;-85
2023/01/27 05:22:12;;;;;;;5.85;2.67;;;5.90;99.90;;;;;;4971875;28;20186;-86
2023/01/27 05:24:37;;;;;;;13.73;3.10;;;5.80;99.90;;;;;;4959660;28;20202;-86
2023/01/27 05:27:04;;;;;;;11.90;3.88;;;5.70;99.90;;;;;;4957519;28;20211;-76
2023/01/27 05:29:30;;;;;;;6.72;3.30;;;5.70;99.90;;;;;;4958131;28;20175;-84
2023/01/27 05:31:55;;;;;;;6.50;2.80;;;5.70;99.90;;;;;;4957312;28;20262;-84
2023/01/27 05:34:21;;;;;;;20.42;3.60;;;5.70;99.90;;;;;;4957420;28;20206;-76
2023/01/27 05:36:47;;;;;;;4.47;3.40;;;5.80;99.90;;;;;;4957161;28;20182;-86
2023/01/27 05:39:13;;;;;;;6.78;3.80;;;5.80;99.90;;;;;;4957545;28;20165;-84
2023/01/27 05:41:38;;;;;;;8.75;3.83;;;5.70;99.90;;;;;;4957303;28;20654;-83
2023/01/27 05:44:05;;;;;;;8.23;3.17;;;5.60;99.90;;;;;;4957176;28;20175;-79
2023/01/27 05:46:32;;;;;;;3.53;3.20;;;5.40;99.90;;;;;;4957500;28;20583;-83
2023/01/27 05:49:05;;;;;;;6.63;3.58;;;5.40;99.90;;;;;;4956742;28;20510;-87
2023/01/27 05:51:34;;;;;;;9.45;3.35;;;5.60;99.90;;;;;;4956714;28;20191;-77
2023/01/27 05:54:00;;;;;;;7.60;3.72;;;5.50;99.90;;;;;;4957303;28;20170;-78
2023/01/27 05:56:25;;;;;;;8.20;4.53;;;5.50;99.90;;;;;;4956900;28;20170;-83
2023/01/27 05:58:56;;;;;;;8.82;3.70;;;5.40;99.90;;;;;;4956657;28;20528;-84
2023/01/27 06:01:27;;;;;;;11.32;4.22;;;5.60;99.90;;;;;;4956015;29;20214;-85
2023/01/27 06:03:53;;;;;;;9.38;4.45;;;5.50;99.90;;;;;;4955847;29;20891;-85
2023/01/27 06:06:21;;;;;;;8.18;4.40;;;5.60;99.90;;;;;;4955648;28;20214;-85
2023/01/27 06:08:47;;;;;;;12.75;3.97;;;5.80;99.90;;;;;;4956689;28;20499;-82
2023/01/27 06:11:14;;;;;;;9.10;4.32;;;5.90;99.90;;;;;;4956027;28;20241;-84
2023/01/27 06:13:40;;;;;;;14.13;5.10;;;6.00;99.90;;;;;;4956728;28;20183;-85
2023/01/27 06:16:08;;;;;;;6.93;4.28;;;5.90;99.90;;;;;;4955188;29;20167;-84
2023/01/27 06:18:34;;;;;;;6.80;4.18;;;5.70;99.90;;;;;;4955007;29;20171;-84
2023/01/27 06:21:01;;;;;;;12.60;4.80;;;5.80;99.90;;;;;;4956255;28;20190;-77
2023/01/27 06:23:27;;;;;;;9.65;4.53;;;5.70;99.90;;;;;;4956464;28;20171;-83
2023/01/27 06:25:54;;;;;;;14.15;4.72;;;5.80;99.90;;;;;;4956209;28;20253;-82
2023/01/27 06:28:20;;;;;;;13.85;4.55;;;5.70;99.90;;;;;;4956198;28;20177;-86
2023/01/27 06:30:46;;;;;;;7.70;4.22;;;5.60;99.90;;;;;;4956199;28;20193;-84
2023/01/27 06:33:12;;;;;;;10.48;4.50;;;5.50;99.90;;;;;;4956334;28;20174;-86
2023/01/27 06:35:39;;;;;;;7.03;4.50;;;5.40;99.90;;;;;;4955991;28;20624;-87
2023/01/27 06:38:09;;;;;;;6.38;4.53;;;5.50;99.90;;;;;;4956193;28;20173;-81
2023/01/27 06:40:35;;;;;;;6.88;4.40;;;5.40;99.90;;;;;;4955775;28;20190;-83
2023/01/27 06:43:01;;;;;;;12.90;4.57;;;5.40;99.90;;;;;;4955712;28;20212;-84
2023/01/27 06:45:27;;;;;;;16.90;6.78;;;5.30;99.90;;;;;;4955697;28;20166;-77
2023/01/27 06:47:58;;;;;;;10.77;5.18;;;5.20;99.90;;;;;;4955541;28;20190;-78
2023/01/27 06:50:25;;;;;;;11.90;5.15;;;5.50;99.90;;;;;;4955369;28;20264;-76
2023/01/27 06:52:52;;;;;;;7.88;4.50;;;5.50;99.90;;;;;;4955099;29;20181;-80
2023/01/27 06:55:18;;;;;;;11.48;4.93;;;5.40;99.90;;;;;;4954955;28;20173;-77
2023/01/27 06:57:47;;;;;;;10.88;5.93;;;5.40;99.90;;;;;;4954994;28;20170;-77
2023/01/27 07:00:15;;;;;;;9.30;4.93;;;5.60;99.90;;;;;;4955339;28;20237;-83
2023/01/27 07:02:42;;;;;;;12.55;5.93;;;5.70;99.90;;;;;;4955683;28;20167;-85
2023/01/27 07:05:08;;;;;;;9.73;5.65;;;5.50;99.90;;;;;;4955628;28;20627;-85
2023/01/27 07:07:33;;;;;;;8.93;5.80;;;5.40;99.90;;;;;;4954818;28;20268;-83
2023/01/27 07:09:59;;;;;;;9.38;5.65;;;5.40;99.90;;;;;;4959519;28;20228;-77
2023/01/27 07:12:24;;;;;;;14.60;6.57;;;5.60;99.90;;;;;;4953950;29;20532;-80
2023/01/27 07:14:50;;;;;;;12.40;6.18;;;5.70;99.90;;;;;;4955685;28;20285;-81
2023/01/27 07:17:15;;;;;;;7.88;5.25;;;5.60;99.90;;;;;;4955496;28;20170;-83
2023/01/27 07:19:41;;;;;;;13.43;5.47;;;5.60;99.90;;;;;;4954056;29;20225;-84
2023/01/27 07:22:06;;;;;;;14.93;6.45;;;5.40;99.90;;;;;;4955772;28;20640;-86
2023/01/27 07:24:32;;;;;;;12.82;6.60;;;5.20;99.90;;;;;;4955621;28;20175;-81
2023/01/27 07:26:58;;;;;;;13.73;6.88;;;5.10;99.90;;;;;;4955072;28;20210;-81
2023/01/27 07:29:23;;;;;;;13.93;6.57;;;5.10;99.90;;;;;;4954461;28;20688;-81
2023/01/27 07:31:49;;;;;;;15.57;6.43;;;5.30;99.90;;;;;;4953985;28;20179;-81
2023/01/27 07:34:15;;;;;;;13.23;6.90;;;5.30;99.90;;;;;;4954531;28;20226;-81
2023/01/27 07:36:40;;;;;;;7.70;6.53;;;5.30;99.90;;;;;;4952727;29;20619;-82
2023/01/27 07:39:06;;;;;;;28.88;7.22;;;5.40;99.90;;;;;;4953020;29;20178;-82
2023/01/27 07:41:31;;;;;;;19.88;7.32;;;5.50;99.90;;;;;;4966992;28;20692;-81
2023/01/27 07:43:57;;;;;;;10.73;7.50;;;5.40;99.90;;;;;;4969457;28;20177;-86
2023/01/27 07:46:22;;;;;;;16.98;7.65;;;5.40;99.90;;;;;;4954810;28;20225;-83
2023/01/27 07:48:48;;;;;;;8.10;6.47;;;5.60;99.90;;;;;;4954235;29;20664;-82
2023/01/27 07:51:14;;;;;;;14.70;7.95;;;5.60;99.90;;;;;;4963793;28;20201;-83
2023/01/27 07:53:40;;;;;;;16.50;7.07;;;5.60;99.90;;;;;;4971941;28;20178;-82
2023/01/27 07:56:12;;;;;;;11.05;7.53;;;5.50;99.90;;;;;;4971543;28;20643;-83
2023/01/27 07:58:38;;;;;;;12.43;7.57;;;5.50;99.90;;;;;;4971988;28;20166;-83
2023/01/27 08:01:11;;;;;;;18.02;8.07;;;5.50;99.90;;;;;;4971869;28;20182;-83
2023/01/27 08:03:37;;;;;;;14.23;8.80;;;5.40;99.90;;;;;;4972601;28;20538;-83
2023/01/27 08:06:08;;;;;;;15.43;7.43;;;5.50;99.90;;;;;;4972434;28;20201;-80
2023/01/27 08:08:34;;;;;;;11.20;7.63;;;5.40;99.90;;;;;;4969556;28;20214;-83
2023/01/27 08:11:07;;;;;;;11.48;6.60;;;5.20;99.90;;;;;;4953734;29;20197;-83
2023/01/27 08:13:35;;;;;;;20.23;7.40;;;5.30;99.90;;;;;;4955877;29;20261;-82
2023/01/27 08:16:04;;;;;;;13.45;7.68;;;5.30;99.90;;;;;;4974139;28;20196;-80
2023/01/27 08:18:34;;;;;;;10.00;7.65;;;5.30;99.90;;;;;;4964658;28;20175;-81
2023/01/27 08:21:05;;;;;;;10.32;6.90;;;5.30;99.90;;;;;;4972536;28;20190;-83
2023/01/27 08:23:31;;;;;;;14.45;7.53;;;5.30;99.90;;;;;;4972116;28;20202;-84
2023/01/27 08:26:00;;;;;;;10.70;7.13;;;5.20;99.90;;;;;;4974691;28;20198;-85
2023/01/27 08:28:28;;;;;;;15.00;7.45;;;5.10;99.90;;;;;;4973134;28;20174;-85
2023/01/27 08:30:54;;;;;;;13.02;7.38;;;5.10;99.90;;;;;;4976706;28;20655;-83
2023/01/27 08:33:22;;;;;;;10.55;6.65;;;5.20;99.90;;;;;;4987460;28;20177;-83
2023/01/27 08:35:48;;;;;;;9.90;5.85;;;5.50;99.90;;;;;;4996835;28;20161;-84
2023/01/27 08:38:16;;;;;;;11.10;6.50;;;5.50;99.90;;;;;;4995702;28;20200;-83
2023/01/27 08:40:42;;;;;;;12.82;7.43;;;5.40;99.90;;;;;;4996800;28;21033;-84
2023/01/27 08:43:08;;;;;;;10.13;6.93;;;5.40;99.90;;;;;;4996495;28;20192;-84
2023/01/27 08:45:35;;;;;;;11.13;6.40;;;5.30;99.90;;;;;;4995432;28;20228;-84
2023/01/27 08:48:02;;;;;;;11.57;7.07;;;5.40;99.90;;;;;;4996171;28;20220;-85
2023/01/27 08:50:29;;;;;;;9.88;6.63;;;5.60;99.90;;;;;;4996573;28;20186;-84
2023/01/27 08:52:57;;;;;;;9.85;5.95;;;5.80;99.90;;;;;;4987516;28;20285;-84
2023/01/27 08:55:26;;;;;;;11.27;5.88;;;5.90;99.90;;;;;;4974819;28;20178;-83
2023/01/27 08:57:52;;;;;;;7.85;6.57;;;5.70;99.90;;;;;;4975420;28;20594;-83
2023/01/27 09:00:18;;;;;;;9.35;5.90;;;5.60;99.90;;;;;;4975350;28;20229;-82
2023/01/27 09:02:45;;;;;;;7.47;6.18;;;5.60;99.90;;;;;;4984053;28;20208;-85
2023/01/27 09:05:10;;;;;;;18.58;5.95;;;5.80;99.90;;;;;;4996957;28;20613;-84
2023/01/27 09:07:36;;;;;;;8.43;6.97;;;5.90;99.90;;;;;;4996573;28;20304;-84
2023/01/27 09:10:02;;;;;;;9.77;6.55;;;5.90;99.90;;;;;;4995864;28;20199;-84
2023/01/27 09:12:27;;;;;;;14.48;6.72;;;6.10;99.90;;;;;;4996283;28;20173;-85
2023/01/27 09:14:53;;;;;;;19.13;6.78;;;6.10;99.90;;;;;;4995200;28;20639;-84
2023/01/27 09:17:19;;;;;;;10.35;6.82;;;6.00;99.90;;;;;;4997093;28;20226;-83
2023/01/27 09:19:45;;;;;;;10.15;6.25;;;6.00;99.90;;;;;;4994462;28;20181;-83
2023/01/27 09:22:11;;;;;;;7.18;6.05;;;6.10;99.90;;;;;;4996106;28;20173;-85
2023/01/27 09:24:36;;;;;;;13.40;6.15;;;6.20;99.90;;;;;;4996575;28;20177;-84
2023/01/27 09:27:02;;;;;;;8.60;6.25;;;6.20;99.90;;;;;;4997012;28;20646;-83
2023/01/27 09:29:28;;;;;;;8.60;6.10;;;6.30;99.90;;;;;;4993575;28;20166;-82
2023/01/27 09:31:54;;;;;;;7.20;5.97;;;6.30;99.90;;;;;;4970462;28;20260;-84
2023/01/27 09:34:19;;;;;;;11.55;6.32;;;6.40;99.90;;;;;;4994841;28;20165;-84
2023/01/27 09:36:51;;;;;;;12.13;5.80;;;6.20;99.90;;;;;;4995808;28;20177;-84
2023/01/27 09:39:19;;;;;;;11.38;7.03;;;6.30;99.90;;;;;;4994742;28;20170;-82
2023/01/27 09:41:57;;;;;;;9.57;6.90;;;6.40;99.90;;;;;;4976786;28;20607;-84
2023/01/27 09:44:47;;;;;;;7.65;6.20;;;6.40;99.90;;;;;;4972245;28;20170;-84
2023/01/27 09:47:24;;;;;;;17.42;6.53;;;6.30;99.90;;;;;;4976386;28;20238;-83
2023/01/27 09:50:28;;;;;;;7.30;6.43;;;6.50;99.90;;;;;;4956562;29;20200;-85
2023/01/27 09:53:13;;;;;;;7.30;5.13;;;6.40;99.90;;;;;;4976567;28;20193;-85
2023/01/27 09:55:41;;;;;;;7.20;6.05;;;6.40;99.90;;;;;;4957099;29;20174;-86
2023/01/27 09:58:13;;;;;;;6.68;5.68;;;6.10;99.90;;;;;;4958932;29;20217;-84
2023/01/27 10:01:07;;;;;;;9.82;5.32;;;6.20;99.90;;;;;;4956656;29;20210;-85
2023/01/27 10:03:54;;;;;;;9.55;5.93;;;6.30;99.90;;;;;;4982212;28;20181;-83
2023/01/27 10:06:43;;;;;;;11.23;6.05;;;6.30;99.90;;;;;;4995831;28;20213;-85
2023/01/27 10:09:22;;;;;;;13.98;5.90;;;6.40;99.90;;;;;;4994247;28;20268;-84
2023/01/27 10:12:08;;;;;;;8.38;6.10;;;6.30;99.90;;;;;;4993894;28;20260;-85
2023/01/27 10:14:54;;;;;;;8.98;5.63;;;6.20;99.90;;;;;;4994618;28;20605;-84
2023/01/27 10:17:52;;;;;;;6.72;5.38;;;6.40;99.90;;;;;;5005253;28;20169;-86
2023/01/27 10:20:47;;;;;;;6.75;5.70;;;6.50;99.90;;;;;;4991456;28;20212;-85
2023/01/27 10:23:31;;;;;;;14.55;5.72;;;6.50;99.90;;;;;;4973632;28;20632;-84
2023/01/27 10:26:17;;;;;;;6.03;4.78;;;6.60;99.90;;;;;;4995099;28;20204;-86
2023/01/27 10:28:50;;;;;;;8.13;6.28;;;6.60;99.90;;;;;;4994681;28;20189;-84
2023/01/27 10:31:31;;;;;;;16.05;5.93;;;6.50;99.90;;;;;;4994688;28;20218;-85
2023/01/27 10:34:04;;;;;;;11.60;5.72;;;6.50;99.90;;;;;;4995582;28;20626;-85
2023/01/27 10:36:54;;;;;;;11.02;5.80;;;6.60;99.90;;;;;;4995967;28;20272;-85
2023/01/27 10:39:32;;;;;;;10.40;5.88;;;6.70;99.90;;;;;;4996465;28;20173;-84
2023/01/27 10:42:08;;;;;;;6.43;4.72;;;6.90;99.90;;;;;;4994154;28;20276;-86
2023/01/27 10:44:49;;;;;;;5.95;4.43;;;6.90;99.90;;;;;;4996165;28;20169;-85
2023/01/27 10:47:23;;;;;;;6.07;4.63;;;6.80;99.90;;;;;;4993915;28;20231;-85
2023/01/27 10:49:54;;;;;;;5.75;5.07;;;6.90;99.90;;;;;;4996228;28;20188;-87
2023/01/27 10:52:29;;;;;;;11.27;4.85;;;6.70;99.90;;;;;;4994698;28;20252;-83
2023/01/27 10:55:20;;;;;;;11.65;4.82;;;6.50;99.90;;;;;;4995985;28;20196;-86
2023/01/27 10:58:09;;;;;;;5.90;4.60;;;6.50;99.90;;;;;;4995458;28;20173;-90
2023/01/27 11:00:51;;;;;;;15.60;4.72;;;6.50;99.90;;;;;;4994891;28;20197;-90
2023/01/27 11:03:41;;;;;;;8.18;4.57;;;6.30;99.90;;;;;;4997000;28;20168;-90
2023/01/27 11:06:14;;;;;;;7.70;3.15;;;6.40;99.90;;;;;;4995512;28;20197;-86
2023/01/27 11:08:44;;;;;;;3.92;3.35;;;6.40;99.90;;;;;;4994340;28;20173;-87
2023/01/27 11:14:03;;;;;;;3.50;3.15;;;6.40;99.90;;;;;;4976278;28;20181;-87
2023/01/27 11:16:36;;;;;;;4.38;3.30;;;6.40;99.90;;;;;;4987895;28;20182;-83
2023/01/27 11:19:15;;;;;;;3.28;2.97;;;6.40;99.90;;;;;;4989872;28;20209;-86
2023/01/27 11:21:41;;;;;;;5.40;3.70;;;6.70;99.90;;;;;;5004982;28;20669;-78
2023/01/27 11:24:28;;;;;;;4.05;3.50;;;6.90;99.90;;;;;;5008568;28;20176;-84
2023/01/27 11:27:12;;;;;;;6.55;3.47;;;7.00;99.90;;;;;;4996908;28;20193;-84
2023/01/27 11:29:52;;;;;;;9.05;4.30;;;7.00;99.90;;;;;;4994375;28;20189;-82
2023/01/27 11:32:43;;;;;;;7.47;4.03;;;7.00;99.90;;;;;;4982134;28;20173;-79
2023/01/27 11:35:14;;;;;;;6.40;3.10;;;7.20;99.90;;;;;;4973618;28;20193;-77
2023/01/27 11:37:42;;;;;;;3.25;3.00;;;7.10;99.90;;;;;;4973609;28;20217;-86
2023/01/27 11:40:26;;;;;;;7.60;3.55;;;7.10;99.90;;;;;;4983545;28;20204;-86
2023/01/27 11:42:54;;;;;;;5.43;3.53;;;7.40;99.90;;;;;;4984159;28;20186;-85
2023/01/27 11:45:20;;;;;;;3.80;3.42;;;7.30;99.90;;;;;;4955434;28;20171;-86
2023/01/27 11:47:49;;;;;;;3.50;3.15;;;7.20;99.90;;;;;;4956529;28;20213;-85
2023/01/27 11:50:20;;;;;;;4.18;3.03;;;7.10;99.90;;;;;;4955791;28;20201;-86
2023/01/27 11:53:23;;;;;;;3.95;2.92;;;7.10;99.90;;;;;;4955867;28;20181;-85
2023/01/27 11:55:57;;;;;;;5.85;2.70;;;7.20;99.90;;;;;;4956258;28;20237;-86
2023/01/27 11:58:49;;;;;;;5.90;2.80;;;7.20;99.90;;;;;;4956408;28;20238;-85
2023/01/27 12:01:20;;;;;;;3.95;3.42;;;7.10;99.90;;;;;;4955778;28;20194;-85
2023/01/27 12:03:59;;;;;;;7.22;2.72;;;7.10;99.90;;;;;;4956704;28;20178;-85
2023/01/27 12:06:45;;;;;;;4.03;3.00;;;7.30;99.90;;;;;;4959360;28;20213;-83
2023/01/27 12:09:35;;;;;;;12.77;4.05;;;7.10;99.90;;;;;;4959506;28;20225;-85
2023/01/27 12:12:21;;;;;;;24.27;3.47;;;7.10;99.90;;;;;;4961857;28;20206;-84
2023/01/27 12:14:57;;;;;;;8.93;2.53;;;7.10;99.90;;;;;;4966035;28;20193;-83
2023/01/27 12:17:37;;;;;;;4.93;2.80;;;7.10;99.90;;;;;;4960864;28;20170;-85
2023/01/27 12:20:35;;;;;;;3.97;2.35;;;7.20;99.90;;;;;;4961730;28;20190;-83
2023/01/27 12:23:14;;;;;;;2.80;2.53;;;7.30;99.90;;;;;;4959987;28;20173;-85
2023/01/27 12:25:44;;;;;;;2.83;2.45;;;7.20;99.90;;;;;;4959805;28;20180;-82
2023/01/27 12:28:32;;;;;;;4.07;2.42;;;7.00;99.90;;;;;;4961374;28;20226;-88
2023/01/27 12:31:10;;;;;;;4.53;2.72;;;7.20;99.90;;;;;;4968360;28;20269;-82
2023/01/27 12:33:38;;;;;;;11.30;2.85;;;7.30;99.90;;;;;;4979215;28;20200;-85
2023/01/27 12:36:15;;;;;;;8.20;2.58;;;7.20;99.90;;;;;;4979840;28;20213;-84
2023/01/27 12:39:22;;;;;;;2.80;2.60;;;7.20;99.90;;;;;;4985554;28;20239;-80
2023/01/27 12:41:49;;;;;;;6.63;3.17;;;7.40;99.90;;;;;;4997849;28;20622;-84
2023/01/27 12:44:18;;;;;;;4.10;2.88;;;7.10;99.90;;;;;;5000896;28;20173;-77
2023/01/27 12:47:14;;;;;;;3.53;3.22;;;7.10;99.90;;;;;;4997405;28;20276;-87
2023/01/27 12:49:43;;;;;;;3.00;2.70;;;7.20;99.90;;;;;;4992805;28;20552;-80
2023/01/27 12:52:21;;;;;;;6.70;2.70;;;6.90;99.90;;;;;;4968099;28;20210;-86
2023/01/27 12:54:50;;;;;;;8.23;2.45;;;6.80;99.90;;;;;;4960302;28;20177;-85
2023/01/27 12:57:20;;;;;;;3.58;2.83;;;6.70;99.90;;;;;;4962570;28;20524;-86
2023/01/27 12:59:51;;;;;;;3.55;3.25;;;6.70;99.90;;;;;;4961961;28;20190;-84
2023/01/27 13:02:25;;;;;;;7.50;3.53;;;6.80;99.90;;;;;;4959889;29;20170;-85
2023/01/27 13:05:02;;;;;;;6.72;3.05;;;6.80;99.90;;;;;;4960150;28;20178;-83
2023/01/27 13:07:30;;;;;;;10.57;2.92;;;6.70;99.90;;;;;;4960237;28;20210;-86
2023/01/27 13:10:05;;;;;;;2.33;2.13;;;6.60;99.90;;;;;;4958744;28;20213;-86
2023/01/27 13:12:48;;;;;;;4.25;2.85;;;6.60;99.90;;;;;;4958903;28;20181;-82
2023/01/27 13:15:16;;;;;;;3.35;3.05;;;6.50;99.90;;;;;;4956111;28;20179;-78
2023/01/27 13:17:47;;;;;;;4.72;3.22;;;6.60;99.90;;;;;;4957267;28;20525;-86
2023/01/27 13:20:25;;;;;;;4.93;2.97;;;6.50;99.90;;;;;;4959101;28;20202;-87
2023/01/27 13:22:58;;;;;;;4.22;2.88;;;6.50;99.90;;;;;;4958802;28;20174;-88
2023/01/27 13:25:31;;;;;;;4.28;3.85;;;6.50;99.90;;;;;;4958878;28;20174;-82
2023/01/27 13:27:58;;;;;;;3.78;3.17;;;6.70;99.90;;;;;;4958864;28;20278;-86
2023/01/27 13:30:35;;;;;;;8.18;3.05;;;6.60;99.90;;;;;;4958579;28;20214;-85
2023/01/27 13:33:46;;;;;;;10.23;3.03;;;6.50;99.90;;;;;;4958698;28;20175;-80
2023/01/27 13:36:53;;;;;;;3.65;2.80;;;6.60;99.90;;;;;;4953443;28;20713;-86
2023/01/27 13:39:43;;;;;;;3.10;2.85;;;6.40;99.90;;;;;;4958102;29;20194;-85
2023/01/27 13:42:18;;;;;;;2.78;2.45;;;6.30;99.90;;;;;;4958740;29;20616;-85
2023/01/27 13:45:01;;;;;;;12.68;3.67;;;6.40;99.90;;;;;;4959139;28;20170;-86
2023/01/27 13:47:39;;;;;;;4.32;2.67;;;6.50;99.90;;;;;;4959253;28;20730;-86